sensor_id;sensor_type;location;lat;lon;timestamp;P1;durP1;ratioP1;P2;durP2;ratioP2
966;SDS011;56108;48.730;9.304;2023-02-28T00:00:52;7.93;;;5.28;;
966;SDS011;56108;48.730;9.304;2023-02-28T00:03:01;5.10;;;4.70;;
966;SDS011;56108;48.730;9.304;2023-02-28T00:05:09;5.38;;;4.88;;
966;SDS011;56108;48.730;9.304;2023-02-28T00:07:18;5.30;;;4.85;;
966;SDS011;56108;48.730;9.304;2023-02-28T00:09:29;5.50;;;5.00;;
966;SDS011;56108;48.730;9.304;2023-02-28T00:11:37;5.30;;;4.90;;
966;SDS011;56108;48.730;9.304;2023-02-28T00:13:45;5.13;;;4.65;;
966;SDS011;56108;48.730;9.304;2023-02-28T00:16:00;5.20;;;4.70;;
966;SDS011;56108;48.730;9.304;2023-02-28T00:18:09;4.38;;;4.00;;
966;SDS011;56108;48.730;9.304;2023-02-28T00:20:18;4.70;;;4.30;;
966;SDS011;56108;48.730;9.304;2023-02-28T00:22:26;5.40;;;4.90;;
966;SDS011;56108;48.730;9.304;2023-02-28T00:24:36;5.10;;;4.65;;
966;SDS011;56108;48.730;9.304;2023-02-28T00:26:44;7.10;;;5.07;;
966;SDS011;56108;48.730;9.304;2023-02-28T00:28:52;6.07;;;5.55;;
966;SDS011;56108;48.730;9.304;2023-02-28T00:31:00;5.00;;;4.60;;
966;SDS011;56108;48.730;9.304;2023-02-28T00:33:09;6.03;;;4.82;;
966;SDS011;56108;48.730;9.304;2023-02-28T00:35:17;5.43;;;4.75;;
966;SDS011;56108;48.730;9.304;2023-02-28T00:37:25;4.93;;;4.53;;
966;SDS011;56108;48.730;9.304;2023-02-28T00:39:36;4.68;;;4.30;;
966;SDS011;56108;48.730;9.304;2023-02-28T00:41:45;4.70;;;4.30;;
966;SDS011;56108;48.730;9.304;2023-02-28T00:43:53;7.20;;;4.60;;
966;SDS011;56108;48.730;9.304;2023-02-28T00:46:01;6.50;;;5.05;;
966;SDS011;56108;48.730;9.304;2023-02-28T00:48:11;5.40;;;4.90;;
966;SDS011;56108;48.730;9.304;2023-02-28T00:50:19;4.43;;;4.13;;
966;SDS011;56108;48.730;9.304;2023-02-28T00:52:28;5.20;;;4.80;;
966;SDS011;56108;48.730;9.304;2023-02-28T00:54:38;5.13;;;4.63;;
966;SDS011;56108;48.730;9.304;2023-02-28T00:56:46;5.72;;;5.25;;
966;SDS011;56108;48.730;9.304;2023-02-28T00:58:54;4.90;;;4.43;;
966;SDS011;56108;48.730;9.304;2023-02-28T01:01:02;4.68;;;4.28;;
966;SDS011;56108;48.730;9.304;2023-02-28T01:03:11;5.05;;;4.55;;
966;SDS011;56108;48.730;9.304;2023-02-28T01:05:19;5.47;;;4.97;;
966;SDS011;56108;48.730;9.304;2023-02-28T01:07:27;4.95;;;4.55;;
966;SDS011;56108;48.730;9.304;2023-02-28T01:09:39;4.88;;;4.57;;
966;SDS011;56108;48.730;9.304;2023-02-28T01:11:46;5.70;;;5.10;;
966;SDS011;56108;48.730;9.304;2023-02-28T01:13:54;5.22;;;4.70;;
966;SDS011;56108;48.730;9.304;2023-02-28T01:16:02;4.90;;;4.50;;
966;SDS011;56108;48.730;9.304;2023-02-28T01:18:11;5.30;;;4.80;;
966;SDS011;56108;48.730;9.304;2023-02-28T01:20:19;5.03;;;4.63;;
966;SDS011;56108;48.730;9.304;2023-02-28T01:22:27;5.68;;;5.18;;
966;SDS011;56108;48.730;9.304;2023-02-28T01:24:38;6.50;;;5.90;;
966;SDS011;56108;48.730;9.304;2023-02-28T01:26:49;8.10;;;5.00;;
966;SDS011;56108;48.730;9.304;2023-02-28T01:28:58;6.43;;;5.68;;
966;SDS011;56108;48.730;9.304;2023-02-28T01:31:06;6.18;;;5.45;;
966;SDS011;56108;48.730;9.304;2023-02-28T01:33:15;6.03;;;5.25;;
966;SDS011;56108;48.730;9.304;2023-02-28T01:35:23;5.97;;;5.47;;
966;SDS011;56108;48.730;9.304;2023-02-28T01:37:31;6.20;;;5.60;;
966;SDS011;56108;48.730;9.304;2023-02-28T01:39:43;6.03;;;5.53;;
966;SDS011;56108;48.730;9.304;2023-02-28T01:41:50;5.93;;;5.35;;
966;SDS011;56108;48.730;9.304;2023-02-28T01:44:01;5.95;;;5.35;;
966;SDS011;56108;48.730;9.304;2023-02-28T01:46:12;7.63;;;6.25;;
966;SDS011;56108;48.730;9.304;2023-02-28T01:48:24;7.78;;;6.72;;
966;SDS011;56108;48.730;9.304;2023-02-28T01:50:36;6.70;;;5.65;;
966;SDS011;56108;48.730;9.304;2023-02-28T01:52:47;6.88;;;6.20;;
966;SDS011;56108;48.730;9.304;2023-02-28T01:55:04;7.63;;;5.72;;
966;SDS011;56108;48.730;9.304;2023-02-28T01:57:14;7.07;;;6.47;;
966;SDS011;56108;48.730;9.304;2023-02-28T01:59:27;5.63;;;5.00;;
966;SDS011;56108;48.730;9.304;2023-02-28T02:01:39;5.95;;;5.45;;
966;SDS011;56108;48.730;9.304;2023-02-28T02:03:47;6.30;;;5.70;;
966;SDS011;56108;48.730;9.304;2023-02-28T02:06:02;6.50;;;5.90;;
966;SDS011;56108;48.730;9.304;2023-02-28T02:08:12;8.40;;;6.20;;
966;SDS011;56108;48.730;9.304;2023-02-28T02:10:29;6.78;;;6.10;;
966;SDS011;56108;48.730;9.304;2023-02-28T02:12:45;7.20;;;6.50;;
966;SDS011;56108;48.730;9.304;2023-02-28T02:15:01;6.63;;;5.95;;
966;SDS011;56108;48.730;9.304;2023-02-28T02:17:20;6.47;;;5.88;;
966;SDS011;56108;48.730;9.304;2023-02-28T02:19:51;6.88;;;6.03;;
966;SDS011;56108;48.730;9.304;2023-02-28T02:25:02;6.43;;;5.90;;
966;SDS011;56108;48.730;9.304;2023-02-28T02:35:07;6.30;;;5.65;;
966;SDS011;56108;48.730;9.304;2023-02-28T02:37:24;7.25;;;6.55;;
966;SDS011;56108;48.730;9.304;2023-02-28T02:39:39;7.75;;;6.55;;
966;SDS011;56108;48.730;9.304;2023-02-28T02:41:53;7.47;;;6.47;;
966;SDS011;56108;48.730;9.304;2023-02-28T02:44:02;7.05;;;5.97;;
966;SDS011;56108;48.730;9.304;2023-02-28T02:46:18;7.53;;;6.43;;
966;SDS011;56108;48.730;9.304;2023-02-28T02:48:30;6.70;;;6.00;;
966;SDS011;56108;48.730;9.304;2023-02-28T02:50:45;5.88;;;5.38;;
966;SDS011;56108;48.730;9.304;2023-02-28T02:52:56;6.82;;;6.05;;
966;SDS011;56108;48.730;9.304;2023-02-28T02:55:09;8.10;;;6.53;;
966;SDS011;56108;48.730;9.304;2023-02-28T02:57:21;6.88;;;5.88;;
966;SDS011;56108;48.730;9.304;2023-02-28T02:59:35;6.95;;;6.25;;
966;SDS011;56108;48.730;9.304;2023-02-28T03:01:47;7.35;;;6.65;;
966;SDS011;56108;48.730;9.304;2023-02-28T03:03:58;8.15;;;7.35;;
966;SDS011;56108;48.730;9.304;2023-02-28T03:06:11;7.43;;;6.70;;
966;SDS011;56108;48.730;9.304;2023-02-28T03:08:19;6.55;;;5.53;;
966;SDS011;56108;48.730;9.304;2023-02-28T03:10:31;6.75;;;5.45;;
966;SDS011;56108;48.730;9.304;2023-02-28T03:12:45;6.53;;;5.68;;
966;SDS011;56108;48.730;9.304;2023-02-28T03:15:04;6.90;;;6.20;;
966;SDS011;56108;48.730;9.304;2023-02-28T03:20:01;6.53;;;5.82;;
966;SDS011;56108;48.730;9.304;2023-02-28T03:24:59;7.22;;;6.53;;
966;SDS011;56108;48.730;9.304;2023-02-28T03:27:16;7.57;;;6.78;;
966;SDS011;56108;48.730;9.304;2023-02-28T03:29:32;10.35;;;7.50;;
966;SDS011;56108;48.730;9.304;2023-02-28T03:31:44;7.25;;;6.55;;
966;SDS011;56108;48.730;9.304;2023-02-28T03:33:58;7.53;;;6.70;;
966;SDS011;56108;48.730;9.304;2023-02-28T03:36:12;8.60;;;7.45;;
966;SDS011;56108;48.730;9.304;2023-02-28T03:38:27;8.13;;;7.32;;
966;SDS011;56108;48.730;9.304;2023-02-28T03:40:39;8.20;;;6.47;;
966;SDS011;56108;48.730;9.304;2023-02-28T03:42:52;9.40;;;8.07;;
966;SDS011;56108;48.730;9.304;2023-02-28T03:45:09;8.88;;;8.07;;
966;SDS011;56108;48.730;9.304;2023-02-28T03:47:21;9.23;;;7.43;;
966;SDS011;56108;48.730;9.304;2023-02-28T03:49:32;8.15;;;7.20;;
966;SDS011;56108;48.730;9.304;2023-02-28T03:51:48;7.10;;;6.32;;
966;SDS011;56108;48.730;9.304;2023-02-28T03:54:02;8.00;;;7.20;;
966;SDS011;56108;48.730;9.304;2023-02-28T03:56:14;7.95;;;7.20;;
966;SDS011;56108;48.730;9.304;2023-02-28T03:58:26;7.68;;;6.88;;
966;SDS011;56108;48.730;9.304;2023-02-28T04:00:37;7.95;;;6.72;;
966;SDS011;56108;48.730;9.304;2023-02-28T04:02:48;8.65;;;7.75;;
966;SDS011;56108;48.730;9.304;2023-02-28T04:04:57;9.55;;;7.45;;
966;SDS011;56108;48.730;9.304;2023-02-28T04:07:06;9.15;;;7.85;;
966;SDS011;56108;48.730;9.304;2023-02-28T04:09:18;9.43;;;8.52;;
966;SDS011;56108;48.730;9.304;2023-02-28T04:11:27;7.30;;;6.60;;
966;SDS011;56108;48.730;9.304;2023-02-28T04:13:40;9.05;;;8.10;;
966;SDS011;56108;48.730;9.304;2023-02-28T04:15:50;9.43;;;7.78;;
966;SDS011;56108;48.730;9.304;2023-02-28T04:17:58;8.68;;;7.75;;
966;SDS011;56108;48.730;9.304;2023-02-28T04:20:07;8.52;;;7.38;;
966;SDS011;56108;48.730;9.304;2023-02-28T04:22:16;8.60;;;7.70;;
966;SDS011;56108;48.730;9.304;2023-02-28T04:24:27;9.60;;;7.82;;
966;SDS011;56108;48.730;9.304;2023-02-28T04:26:36;9.70;;;8.23;;
966;SDS011;56108;48.730;9.304;2023-02-28T04:28:45;9.30;;;7.25;;
966;SDS011;56108;48.730;9.304;2023-02-28T04:30:55;8.73;;;6.95;;
966;SDS011;56108;48.730;9.304;2023-02-28T04:33:03;8.82;;;8.05;;
966;SDS011;56108;48.730;9.304;2023-02-28T04:35:12;8.40;;;7.00;;
966;SDS011;56108;48.730;9.304;2023-02-28T04:37:20;9.00;;;8.10;;
966;SDS011;56108;48.730;9.304;2023-02-28T04:39:37;9.05;;;8.20;;
966;SDS011;56108;48.730;9.304;2023-02-28T04:41:45;9.27;;;8.05;;
966;SDS011;56108;48.730;9.304;2023-02-28T04:43:53;8.25;;;7.35;;
966;SDS011;56108;48.730;9.304;2023-02-28T04:46:02;9.68;;;8.68;;
966;SDS011;56108;48.730;9.304;2023-02-28T04:48:12;8.57;;;7.68;;
966;SDS011;56108;48.730;9.304;2023-02-28T04:50:20;9.23;;;8.32;;
966;SDS011;56108;48.730;9.304;2023-02-28T04:52:28;9.13;;;8.23;;
966;SDS011;56108;48.730;9.304;2023-02-28T04:54:38;8.80;;;7.93;;
966;SDS011;56108;48.730;9.304;2023-02-28T04:56:46;9.75;;;8.02;;
966;SDS011;56108;48.730;9.304;2023-02-28T04:58:55;9.35;;;7.95;;
966;SDS011;56108;48.730;9.304;2023-02-28T05:01:04;10.93;;;8.55;;
966;SDS011;56108;48.730;9.304;2023-02-28T05:03:17;9.45;;;8.27;;
966;SDS011;56108;48.730;9.304;2023-02-28T05:05:25;8.75;;;7.95;;
966;SDS011;56108;48.730;9.304;2023-02-28T05:07:33;9.40;;;8.13;;
966;SDS011;56108;48.730;9.304;2023-02-28T05:09:43;10.43;;;8.88;;
966;SDS011;56108;48.730;9.304;2023-02-28T05:11:51;8.25;;;7.45;;
966;SDS011;56108;48.730;9.304;2023-02-28T05:13:59;10.23;;;9.23;;
966;SDS011;56108;48.730;9.304;2023-02-28T05:16:07;8.80;;;7.90;;
966;SDS011;56108;48.730;9.304;2023-02-28T05:18:15;10.40;;;8.10;;
966;SDS011;56108;48.730;9.304;2023-02-28T05:20:23;9.95;;;8.75;;
966;SDS011;56108;48.730;9.304;2023-02-28T05:22:31;10.93;;;9.52;;
966;SDS011;56108;48.730;9.304;2023-02-28T05:24:39;11.75;;;9.15;;
966;SDS011;56108;48.730;9.304;2023-02-28T05:26:51;9.43;;;7.03;;
966;SDS011;56108;48.730;9.304;2023-02-28T05:29:00;11.43;;;7.97;;
966;SDS011;56108;48.730;9.304;2023-02-28T05:31:07;10.20;;;8.50;;
966;SDS011;56108;48.730;9.304;2023-02-28T05:33:17;10.38;;;9.38;;
966;SDS011;56108;48.730;9.304;2023-02-28T05:35:26;9.73;;;8.82;;
966;SDS011;56108;48.730;9.304;2023-02-28T05:37:33;9.52;;;7.53;;
966;SDS011;56108;48.730;9.304;2023-02-28T05:39:41;12.57;;;8.68;;
966;SDS011;56108;48.730;9.304;2023-02-28T05:41:52;10.45;;;9.13;;
966;SDS011;56108;48.730;9.304;2023-02-28T05:44:00;9.52;;;8.32;;
966;SDS011;56108;48.730;9.304;2023-02-28T05:46:09;10.85;;;8.65;;
966;SDS011;56108;48.730;9.304;2023-02-28T05:48:18;10.00;;;8.98;;
966;SDS011;56108;48.730;9.304;2023-02-28T05:50:26;11.75;;;8.13;;
966;SDS011;56108;48.730;9.304;2023-02-28T05:52:34;10.98;;;8.60;;
966;SDS011;56108;48.730;9.304;2023-02-28T05:54:42;10.35;;;9.15;;
966;SDS011;56108;48.730;9.304;2023-02-28T05:56:53;9.25;;;7.80;;
966;SDS011;56108;48.730;9.304;2023-02-28T05:59:00;11.27;;;8.60;;
966;SDS011;56108;48.730;9.304;2023-02-28T06:03:37;9.02;;;8.02;;
966;SDS011;56108;48.730;9.304;2023-02-28T06:05:46;9.77;;;8.80;;
966;SDS011;56108;48.730;9.304;2023-02-28T06:07:54;8.30;;;6.97;;
966;SDS011;56108;48.730;9.304;2023-02-28T06:10:03;10.15;;;8.73;;
966;SDS011;56108;48.730;9.304;2023-02-28T06:12:14;12.18;;;10.88;;
966;SDS011;56108;48.730;9.304;2023-02-28T06:14:22;9.75;;;8.60;;
966;SDS011;56108;48.730;9.304;2023-02-28T06:16:30;11.88;;;9.65;;
966;SDS011;56108;48.730;9.304;2023-02-28T06:18:40;11.00;;;8.82;;
966;SDS011;56108;48.730;9.304;2023-02-28T06:20:52;11.93;;;9.07;;
966;SDS011;56108;48.730;9.304;2023-02-28T06:23:00;13.85;;;11.40;;
966;SDS011;56108;48.730;9.304;2023-02-28T06:25:09;11.30;;;8.90;;
966;SDS011;56108;48.730;9.304;2023-02-28T06:27:20;11.75;;;10.38;;
966;SDS011;56108;48.730;9.304;2023-02-28T06:29:28;11.50;;;9.18;;
966;SDS011;56108;48.730;9.304;2023-02-28T06:31:36;10.95;;;9.82;;
966;SDS011;56108;48.730;9.304;2023-02-28T06:33:45;10.98;;;8.73;;
966;SDS011;56108;48.730;9.304;2023-02-28T06:35:53;9.80;;;8.80;;
966;SDS011;56108;48.730;9.304;2023-02-28T06:38:01;13.90;;;10.60;;
966;SDS011;56108;48.730;9.304;2023-02-28T06:40:10;13.20;;;9.00;;
966;SDS011;56108;48.730;9.304;2023-02-28T06:42:21;12.40;;;9.25;;
966;SDS011;56108;48.730;9.304;2023-02-28T06:44:33;10.43;;;9.23;;
966;SDS011;56108;48.730;9.304;2023-02-28T06:46:42;11.90;;;10.10;;
966;SDS011;56108;48.730;9.304;2023-02-28T06:48:51;10.93;;;9.40;;
966;SDS011;56108;48.730;9.304;2023-02-28T06:51:03;11.70;;;10.00;;
966;SDS011;56108;48.730;9.304;2023-02-28T06:53:11;12.20;;;9.90;;
966;SDS011;56108;48.730;9.304;2023-02-28T06:55:19;12.40;;;10.27;;
966;SDS011;56108;48.730;9.304;2023-02-28T06:57:30;11.85;;;9.80;;
966;SDS011;56108;48.730;9.304;2023-02-28T06:59:39;11.25;;;9.25;;
966;SDS011;56108;48.730;9.304;2023-02-28T07:01:47;14.00;;;10.30;;
966;SDS011;56108;48.730;9.304;2023-02-28T07:03:57;12.65;;;10.80;;
966;SDS011;56108;48.730;9.304;2023-02-28T07:06:05;13.32;;;10.02;;
966;SDS011;56108;48.730;9.304;2023-02-28T07:08:13;12.70;;;10.63;;
966;SDS011;56108;48.730;9.304;2023-02-28T07:10:21;10.95;;;9.65;;
966;SDS011;56108;48.730;9.304;2023-02-28T07:12:32;12.38;;;10.52;;
966;SDS011;56108;48.730;9.304;2023-02-28T07:14:40;12.05;;;9.93;;
966;SDS011;56108;48.730;9.304;2023-02-28T07:16:48;13.18;;;11.10;;
966;SDS011;56108;48.730;9.304;2023-02-28T07:18:56;12.63;;;9.70;;
966;SDS011;56108;48.730;9.304;2023-02-28T07:21:04;12.18;;;10.40;;
966;SDS011;56108;48.730;9.304;2023-02-28T07:23:13;13.52;;;11.00;;
966;SDS011;56108;48.730;9.304;2023-02-28T07:25:21;12.38;;;9.80;;
966;SDS011;56108;48.730;9.304;2023-02-28T07:27:32;13.68;;;11.77;;
966;SDS011;56108;48.730;9.304;2023-02-28T07:29:40;13.70;;;10.68;;
966;SDS011;56108;48.730;9.304;2023-02-28T07:31:48;12.93;;;11.52;;
966;SDS011;56108;48.730;9.304;2023-02-28T07:33:58;15.73;;;10.90;;
966;SDS011;56108;48.730;9.304;2023-02-28T07:36:07;12.93;;;10.73;;
966;SDS011;56108;48.730;9.304;2023-02-28T07:38:19;14.65;;;11.02;;
966;SDS011;56108;48.730;9.304;2023-02-28T07:40:27;14.18;;;11.32;;
966;SDS011;56108;48.730;9.304;2023-02-28T07:42:38;12.90;;;10.32;;
966;SDS011;56108;48.730;9.304;2023-02-28T07:44:47;13.27;;;10.70;;
966;SDS011;56108;48.730;9.304;2023-02-28T07:46:56;14.95;;;11.48;;
966;SDS011;56108;48.730;9.304;2023-02-28T07:49:04;15.52;;;11.52;;
966;SDS011;56108;48.730;9.304;2023-02-28T07:51:13;13.57;;;11.30;;
966;SDS011;56108;48.730;9.304;2023-02-28T07:53:22;12.60;;;11.18;;
966;SDS011;56108;48.730;9.304;2023-02-28T07:55:30;12.90;;;10.77;;
966;SDS011;56108;48.730;9.304;2023-02-28T07:57:40;12.75;;;10.52;;
966;SDS011;56108;48.730;9.304;2023-02-28T07:59:49;15.60;;;10.30;;
966;SDS011;56108;48.730;9.304;2023-02-28T08:01:57;15.82;;;12.20;;
966;SDS011;56108;48.730;9.304;2023-02-28T08:04:05;15.80;;;12.07;;
966;SDS011;56108;48.730;9.304;2023-02-28T08:06:17;14.48;;;11.63;;
966;SDS011;56108;48.730;9.304;2023-02-28T08:08:26;13.93;;;11.25;;
966;SDS011;56108;48.730;9.304;2023-02-28T08:10:36;13.80;;;10.93;;
966;SDS011;56108;48.730;9.304;2023-02-28T08:12:47;14.38;;;10.63;;
966;SDS011;56108;48.730;9.304;2023-02-28T08:14:55;12.50;;;11.20;;
966;SDS011;56108;48.730;9.304;2023-02-28T08:17:03;12.80;;;11.50;;
966;SDS011;56108;48.730;9.304;2023-02-28T08:19:11;12.15;;;10.02;;
966;SDS011;56108;48.730;9.304;2023-02-28T08:21:19;15.48;;;11.27;;
966;SDS011;56108;48.730;9.304;2023-02-28T08:23:28;14.18;;;12.68;;
966;SDS011;56108;48.730;9.304;2023-02-28T08:25:38;13.48;;;11.25;;
966;SDS011;56108;48.730;9.304;2023-02-28T08:27:49;13.98;;;12.32;;
966;SDS011;56108;48.730;9.304;2023-02-28T08:29:58;12.93;;;10.45;;
966;SDS011;56108;48.730;9.304;2023-02-28T08:32:06;14.10;;;10.75;;
966;SDS011;56108;48.730;9.304;2023-02-28T08:34:32;14.52;;;12.70;;
966;SDS011;56108;48.730;9.304;2023-02-28T08:36:40;12.85;;;10.55;;
966;SDS011;56108;48.730;9.304;2023-02-28T08:38:49;14.38;;;12.07;;
966;SDS011;56108;48.730;9.304;2023-02-28T08:40:57;12.80;;;11.10;;
966;SDS011;56108;48.730;9.304;2023-02-28T08:43:08;13.75;;;12.07;;
966;SDS011;56108;48.730;9.304;2023-02-28T08:45:16;14.18;;;12.68;;
966;SDS011;56108;48.730;9.304;2023-02-28T08:47:24;12.18;;;10.88;;
966;SDS011;56108;48.730;9.304;2023-02-28T08:49:32;15.52;;;12.10;;
966;SDS011;56108;48.730;9.304;2023-02-28T08:51:42;15.18;;;11.13;;
966;SDS011;56108;48.730;9.304;2023-02-28T08:53:49;13.35;;;11.65;;
966;SDS011;56108;48.730;9.304;2023-02-28T08:55:58;13.35;;;10.88;;
966;SDS011;56108;48.730;9.304;2023-02-28T08:58:09;14.60;;;11.48;;
966;SDS011;56108;48.730;9.304;2023-02-28T09:00:18;17.95;;;12.45;;
966;SDS011;56108;48.730;9.304;2023-02-28T09:02:27;14.55;;;11.15;;
966;SDS011;56108;48.730;9.304;2023-02-28T09:04:35;13.85;;;11.20;;
966;SDS011;56108;48.730;9.304;2023-02-28T09:06:43;15.18;;;12.10;;
966;SDS011;56108;48.730;9.304;2023-02-28T09:08:53;13.52;;;10.85;;
966;SDS011;56108;48.730;9.304;2023-02-28T09:11:05;14.45;;;11.52;;
966;SDS011;56108;48.730;9.304;2023-02-28T09:13:16;14.38;;;11.57;;
966;SDS011;56108;48.730;9.304;2023-02-28T09:15:25;15.70;;;11.45;;
966;SDS011;56108;48.730;9.304;2023-02-28T09:17:33;13.02;;;11.63;;
966;SDS011;56108;48.730;9.304;2023-02-28T09:19:41;13.85;;;12.30;;
966;SDS011;56108;48.730;9.304;2023-02-28T09:21:49;13.93;;;12.13;;
966;SDS011;56108;48.730;9.304;2023-02-28T09:23:57;12.88;;;10.88;;
966;SDS011;56108;48.730;9.304;2023-02-28T09:26:05;12.98;;;9.50;;
966;SDS011;56108;48.730;9.304;2023-02-28T09:28:13;14.18;;;11.30;;
966;SDS011;56108;48.730;9.304;2023-02-28T09:30:26;12.90;;;11.15;;
966;SDS011;56108;48.730;9.304;2023-02-28T09:32:34;13.80;;;11.52;;
966;SDS011;56108;48.730;9.304;2023-02-28T09:34:42;13.60;;;12.30;;
966;SDS011;56108;48.730;9.304;2023-02-28T09:36:50;13.25;;;11.50;;
966;SDS011;56108;48.730;9.304;2023-02-28T09:39:00;12.65;;;11.35;;
966;SDS011;56108;48.730;9.304;2023-02-28T09:41:12;15.27;;;11.98;;
966;SDS011;56108;48.730;9.304;2023-02-28T09:43:24;14.77;;;13.18;;
966;SDS011;56108;48.730;9.304;2023-02-28T09:45:38;15.05;;;11.70;;
966;SDS011;56108;48.730;9.304;2023-02-28T09:47:48;14.10;;;11.95;;
966;SDS011;56108;48.730;9.304;2023-02-28T09:50:03;13.52;;;12.13;;
966;SDS011;56108;48.730;9.304;2023-02-28T09:52:24;14.30;;;11.65;;
966;SDS011;56108;48.730;9.304;2023-02-28T09:54:36;17.80;;;14.13;;
966;SDS011;56108;48.730;9.304;2023-02-28T09:56:45;13.45;;;11.15;;
966;SDS011;56108;48.730;9.304;2023-02-28T09:58:59;12.57;;;10.93;;
966;SDS011;56108;48.730;9.304;2023-02-28T10:01:19;11.60;;;10.40;;
966;SDS011;56108;48.730;9.304;2023-02-28T10:03:36;13.93;;;11.02;;
966;SDS011;56108;48.730;9.304;2023-02-28T10:05:49;13.95;;;12.10;;
966;SDS011;56108;48.730;9.304;2023-02-28T10:08:02;17.67;;;11.68;;
966;SDS011;56108;48.730;9.304;2023-02-28T10:10:18;12.75;;;10.95;;
966;SDS011;56108;48.730;9.304;2023-02-28T10:12:30;16.23;;;11.77;;
966;SDS011;56108;48.730;9.304;2023-02-28T10:14:39;14.23;;;12.25;;
966;SDS011;56108;48.730;9.304;2023-02-28T10:16:56;13.68;;;11.10;;
966;SDS011;56108;48.730;9.304;2023-02-28T10:19:09;17.15;;;12.13;;
966;SDS011;56108;48.730;9.304;2023-02-28T10:21:23;14.43;;;12.20;;
966;SDS011;56108;48.730;9.304;2023-02-28T10:23:38;16.23;;;11.90;;
966;SDS011;56108;48.730;9.304;2023-02-28T10:25:54;16.13;;;11.82;;
966;SDS011;56108;48.730;9.304;2023-02-28T10:28:09;17.45;;;12.38;;
966;SDS011;56108;48.730;9.304;2023-02-28T10:30:19;15.70;;;12.90;;
966;SDS011;56108;48.730;9.304;2023-02-28T10:32:30;16.67;;;12.57;;
966;SDS011;56108;48.730;9.304;2023-02-28T10:34:40;15.48;;;12.60;;
966;SDS011;56108;48.730;9.304;2023-02-28T10:36:49;13.52;;;11.43;;
966;SDS011;56108;48.730;9.304;2023-02-28T10:38:58;12.55;;;11.00;;
966;SDS011;56108;48.730;9.304;2023-02-28T10:41:07;15.23;;;12.73;;
966;SDS011;56108;48.730;9.304;2023-02-28T10:43:18;13.88;;;11.18;;
966;SDS011;56108;48.730;9.304;2023-02-28T10:45:30;13.07;;;11.75;;
966;SDS011;56108;48.730;9.304;2023-02-28T10:47:48;12.90;;;11.35;;
966;SDS011;56108;48.730;9.304;2023-02-28T10:49:59;16.70;;;11.60;;
966;SDS011;56108;48.730;9.304;2023-02-28T10:52:08;13.50;;;12.10;;
966;SDS011;56108;48.730;9.304;2023-02-28T10:54:18;14.70;;;13.20;;
966;SDS011;56108;48.730;9.304;2023-02-28T10:56:29;13.38;;;11.15;;
966;SDS011;56108;48.730;9.304;2023-02-28T10:58:46;13.02;;;11.73;;
966;SDS011;56108;48.730;9.304;2023-02-28T11:00:56;13.95;;;12.52;;
966;SDS011;56108;48.730;9.304;2023-02-28T11:03:09;15.32;;;13.35;;
966;SDS011;56108;48.730;9.304;2023-02-28T11:05:32;14.82;;;11.35;;
966;SDS011;56108;48.730;9.304;2023-02-28T11:07:42;15.30;;;11.75;;
966;SDS011;56108;48.730;9.304;2023-02-28T11:10:03;14.77;;;12.40;;
966;SDS011;56108;48.730;9.304;2023-02-28T11:12:19;15.20;;;12.30;;
966;SDS011;56108;48.730;9.304;2023-02-28T11:14:29;15.68;;;14.15;;
966;SDS011;56108;48.730;9.304;2023-02-28T11:16:40;14.70;;;12.73;;
966;SDS011;56108;48.730;9.304;2023-02-28T11:18:51;14.13;;;12.73;;
966;SDS011;56108;48.730;9.304;2023-02-28T11:21:01;13.70;;;12.30;;
966;SDS011;56108;48.730;9.304;2023-02-28T11:23:11;16.10;;;14.07;;
966;SDS011;56108;48.730;9.304;2023-02-28T11:25:24;14.43;;;12.93;;
966;SDS011;56108;48.730;9.304;2023-02-28T11:27:42;14.57;;;13.07;;
966;SDS011;56108;48.730;9.304;2023-02-28T11:29:54;13.85;;;12.45;;
966;SDS011;56108;48.730;9.304;2023-02-28T11:32:11;12.93;;;11.55;;
966;SDS011;56108;48.730;9.304;2023-02-28T11:34:25;13.57;;;12.00;;
966;SDS011;56108;48.730;9.304;2023-02-28T11:36:34;17.23;;;11.93;;
966;SDS011;56108;48.730;9.304;2023-02-28T11:38:49;13.20;;;11.90;;
966;SDS011;56108;48.730;9.304;2023-02-28T11:41:02;14.95;;;13.35;;
966;SDS011;56108;48.730;9.304;2023-02-28T11:43:23;13.85;;;12.40;;
966;SDS011;56108;48.730;9.304;2023-02-28T11:45:44;12.18;;;10.98;;
966;SDS011;56108;48.730;9.304;2023-02-28T11:48:04;13.88;;;12.45;;
966;SDS011;56108;48.730;9.304;2023-02-28T11:50:26;15.10;;;11.57;;
966;SDS011;56108;48.730;9.304;2023-02-28T11:52:52;13.15;;;11.73;;
966;SDS011;56108;48.730;9.304;2023-02-28T11:55:13;14.18;;;12.63;;
966;SDS011;56108;48.730;9.304;2023-02-28T11:57:29;13.57;;;12.27;;
966;SDS011;56108;48.730;9.304;2023-02-28T11:59:46;13.63;;;12.20;;
966;SDS011;56108;48.730;9.304;2023-02-28T12:02:19;13.52;;;12.02;;
966;SDS011;56108;48.730;9.304;2023-02-28T12:04:34;15.60;;;14.00;;
966;SDS011;56108;48.730;9.304;2023-02-28T12:07:00;14.52;;;12.40;;
966;SDS011;56108;48.730;9.304;2023-02-28T12:09:23;13.43;;;12.02;;
966;SDS011;56108;48.730;9.304;2023-02-28T12:11:48;13.95;;;11.48;;
966;SDS011;56108;48.730;9.304;2023-02-28T12:14:05;13.20;;;11.90;;
966;SDS011;56108;48.730;9.304;2023-02-28T12:16:29;13.32;;;11.90;;
966;SDS011;56108;48.730;9.304;2023-02-28T12:18:59;14.25;;;12.10;;
966;SDS011;56108;48.730;9.304;2023-02-28T12:21:21;14.82;;;13.20;;
966;SDS011;56108;48.730;9.304;2023-02-28T12:26:26;13.70;;;12.30;;
966;SDS011;56108;48.730;9.304;2023-02-28T12:28:43;14.65;;;12.90;;
966;SDS011;56108;48.730;9.304;2023-02-28T12:30:56;14.20;;;12.70;;
966;SDS011;56108;48.730;9.304;2023-02-28T12:33:09;13.95;;;12.68;;
966;SDS011;56108;48.730;9.304;2023-02-28T12:35:21;13.95;;;12.52;;
966;SDS011;56108;48.730;9.304;2023-02-28T12:37:36;12.38;;;11.07;;
966;SDS011;56108;48.730;9.304;2023-02-28T12:39:48;13.52;;;11.93;;
966;SDS011;56108;48.730;9.304;2023-02-28T12:42:03;15.35;;;13.75;;
966;SDS011;56108;48.730;9.304;2023-02-28T12:44:17;13.13;;;11.80;;
966;SDS011;56108;48.730;9.304;2023-02-28T12:46:30;14.82;;;13.32;;
966;SDS011;56108;48.730;9.304;2023-02-28T12:48:43;15.23;;;13.63;;
966;SDS011;56108;48.730;9.304;2023-02-28T12:50:55;16.00;;;14.40;;
966;SDS011;56108;48.730;9.304;2023-02-28T12:53:06;14.73;;;13.23;;
966;SDS011;56108;48.730;9.304;2023-02-28T12:55:23;16.27;;;13.15;;
966;SDS011;56108;48.730;9.304;2023-02-28T12:57:43;15.45;;;13.85;;
966;SDS011;56108;48.730;9.304;2023-02-28T12:59:59;16.15;;;13.75;;
966;SDS011;56108;48.730;9.304;2023-02-28T13:07:32;15.48;;;13.88;;
966;SDS011;56108;48.730;9.304;2023-02-28T13:10:06;14.32;;;12.80;;
966;SDS011;56108;48.730;9.304;2023-02-28T13:12:15;15.70;;;13.50;;
966;SDS011;56108;48.730;9.304;2023-02-28T13:14:28;14.20;;;12.38;;
966;SDS011;56108;48.730;9.304;2023-02-28T13:16:54;15.88;;;12.70;;
966;SDS011;56108;48.730;9.304;2023-02-28T13:19:09;14.30;;;12.80;;
966;SDS011;56108;48.730;9.304;2023-02-28T13:21:26;17.40;;;12.63;;
966;SDS011;56108;48.730;9.304;2023-02-28T13:23:40;17.10;;;13.68;;
966;SDS011;56108;48.730;9.304;2023-02-28T13:26:05;14.57;;;13.07;;
966;SDS011;56108;48.730;9.304;2023-02-28T13:28:13;13.88;;;12.35;;
966;SDS011;56108;48.730;9.304;2023-02-28T13:33:27;13.57;;;12.27;;
966;SDS011;56108;48.730;9.304;2023-02-28T13:35:37;15.55;;;13.82;;
966;SDS011;56108;48.730;9.304;2023-02-28T13:37:50;14.27;;;12.65;;
966;SDS011;56108;48.730;9.304;2023-02-28T13:39:58;13.95;;;12.52;;
966;SDS011;56108;48.730;9.304;2023-02-28T13:42:34;15.55;;;13.90;;
966;SDS011;56108;48.730;9.304;2023-02-28T13:47:35;14.80;;;13.40;;
966;SDS011;56108;48.730;9.304;2023-02-28T13:49:47;13.00;;;11.60;;
966;SDS011;56108;48.730;9.304;2023-02-28T13:52:02;13.85;;;12.45;;
966;SDS011;56108;48.730;9.304;2023-02-28T13:54:28;13.20;;;11.90;;
966;SDS011;56108;48.730;9.304;2023-02-28T13:56:48;13.65;;;12.15;;